Flight Track Log - Related Links

Times and Time Zones

All times are in EDT time to prevent confusion due to time zone crossing. See the JBU767 flight status page for this flight to view local times or setup timezone preferences in your user account.

Time Position Orientation Groundspeed Altitude Reporting Facility
EDT Latitude Longitude Course Direction KTS MPH feet Rate Location/Type
Fri 11:17:44 PM 28.4167 -81.3167 149° Southeast 156 180 800  Level Orlando TRACON
Fri 11:18:38 PM 28.3833 -81.2833 139° Southeast 202 232 1,900 1,556 Climbing Orlando TRACON
Fri 11:19:32 PM 28.3500 -81.2333 127° Southeast 257 296 3,600 2,802 Climbing Orlando TRACON
Fri 11:20:00 PM 28.2080 -80.9434 148° Southeast  Level Estimated
Fri 11:21:00 PM 28.1340 -80.8218 146° Southeast  Level Estimated
Fri 11:21:55 PM 28.1978 -81.1158 146° Southeast 283 326 11,100  Level Miami Center
Fri 11:22:00 PM 28.0598 -80.7004 152° Southeast  Level Estimated
Fri 11:22:56 PM 28.1286 -81.0614 145° Southeast 298 343 12,200  Level Miami Center
Fri 11:23:00 PM 27.9856 -80.5792 149° Southeast  Level Estimated
Fri 11:23:55 PM 28.0728 -80.9700 125° Southeast 326 375 14,300  Level Miami Center
Fri 11:24:56 PM 28.0169 -80.8739 123° Southeast 357 411 16,300 1,854 Climbing Miami Center
Fri 11:25:58 PM 27.9594 -80.7683 122° Southeast 385 443 18,100 1,966 Climbing Miami Center
Fri 11:26:55 PM 27.8997 -80.6631 123° Southeast 395 455 20,200 1,641 Climbing Miami Center
Fri 11:27:55 PM 27.8375 -80.5622 125° Southeast 405 466 21,300 1,377 Climbing Miami Center
Fri 11:28:57 PM 27.7736 -80.4522 123° Southeast 422 486 23,000 1,600 Climbing Miami Center
Fri 11:29:55 PM 27.7056 -80.3353 123° Southeast 433 498 24,500 1,462 Climbing Miami Center
Fri 11:30:56 PM 27.6372 -80.2183 123° Southeast 439 505 25,900 1,317 Climbing Miami Center
Fri 11:31:58 PM 27.5669 -80.0992 124° Southeast 450 518 27,200 1,160 Climbing Miami Center
Fri 11:32:55 PM 27.4986 -79.9778 122° Southeast 455 524 28,200 1,017 Climbing Miami Center
Fri 11:33:56 PM 27.4300 -79.8567 123° Southeast 455 524 29,200 1,000 Climbing Miami Center
Fri 11:34:55 PM 27.3575 -79.7331 123° Southeast 472 543 30,200 1,109 Climbing Miami Center
Fri 11:35:55 PM 27.2744 -79.5931 124° Southeast 483 556 31,400 1,140 Climbing Miami Center
Fri 11:36:56 PM 27.1997 -79.4675 124° Southeast 483 556 32,500 1,082 Climbing Miami Center
Fri 11:37:57 PM 27.1286 -79.3447 123° Southeast 478 550 33,600 1,190 Climbing Miami Center
Fri 11:38:57 PM 27.0533 -79.2217 124° Southeast 472 543 34,900 1,017 Climbing Miami Center
Fri 11:39:55 PM 26.9842 -79.1039 123° Southeast 472 543 35,600 700 Climbing Miami Center
Fri 11:40:57 PM 26.9131 -78.9836 124° Southeast 472 543 36,300 600 Climbing Miami Center
Fri 11:41:55 PM 26.8417 -78.8636 124° Southeast 472 543 36,800 353 Climbing Miami Center
Fri 11:42:56 PM 26.7761 -78.7578 125° Southeast 472 543 37,000 99 Climbing Miami Center
Fri 11:43:56 PM 26.6900 -78.6308 127° Southeast 461 531 37,000  Level Miami Center
Fri 11:44:57 PM 26.6206 -78.4997 121° Southeast 475 547 37,000  Level Miami Center
Fri 11:45:56 PM 26.5467 -78.3756 124° Southeast 475 547 37,000  Level Miami Center
Fri 11:46:57 PM 26.4686 -78.2539 126° Southeast 475 547 37,000  Level Miami Center
Fri 11:47:58 PM 26.3903 -78.1300 125° Southeast 475 547 37,000  Level Miami Center
Fri 11:48:57 PM 26.3161 -77.9992 122° Southeast 480 552 37,000  Level Miami Center
Fri 11:49:57 PM 26.2417 -77.8781 124° Southeast 480 552 37,000  Level Miami Center
Fri 11:50:58 PM 26.1631 -77.7525 125° Southeast 487 560 37,000  Level Miami Center
Fri 11:51:58 PM 26.0825 -77.6269 126° Southeast 492 566 37,000  Level Miami Center
Fri 11:52:58 PM 26.0078 -77.4969 123° Southeast 492 566 37,000  Level Miami Center
Fri 11:53:56 PM 25.9350 -77.3833 125° Southeast 498 573 37,000  Level Miami Center
Fri 11:54:57 PM 25.8561 -77.2558 124° Southeast 503 579 37,000  Level Miami Center
Fri 11:55:56 PM 25.7769 -77.1264 124° Southeast 503 579 37,000  Level Miami Center
Fri 11:56:55 PM 25.6914 -76.9903 125° Southeast 503 579 37,000  Level Miami Center
Fri 11:57:57 PM 25.6100 -76.8633 125° Southeast 498 573 37,000  Level Miami Center
Fri 11:58:57 PM 25.5283 -76.7322 125° Southeast 498 573 37,000  Level Miami Center
Fri 11:59:58 PM 25.4489 -76.6033 124° Southeast 504 580 37,000  Level Miami Center
Sat 12:00:58 AM 25.3692 -76.4769 125° Southeast 504 580 37,000  Level Miami Center
Sat 12:01:56 AM 25.2853 -76.3508 126° Southeast 504 580 37,000  Level Miami Center
Sat 12:02:57 AM 25.2053 -76.2225 125° Southeast 504 580 37,000  Level Miami Center
Sat 12:03:56 AM 25.1253 -76.0989 126° Southeast 498 573 37,000  Level Miami Center
Sat 12:04:58 AM 25.0472 -75.9711 124° Southeast 498 573 37,000  Level Miami Center
Sat 12:05:56 AM 24.9650 -75.8456 126° Southeast 498 573 37,000  Level Miami Center
Sat 12:06:56 AM 24.8908 -75.7339 126° Southeast 503 579 37,000  Level Miami Center
Sat 12:07:56 AM 24.8106 -75.6042 124° Southeast 503 579 37,000  Level Miami Center
Sat 12:08:57 AM 24.7278 -75.4792 126° Southeast 503 579 37,000  Level Miami Center
Sat 12:09:57 AM 24.6472 -75.3544 125° Southeast 503 579 37,000  Level Miami Center
Sat 12:10:56 AM 24.5644 -75.2250 125° Southeast 503 579 37,000  Level Miami Center
Sat 12:11:56 AM 24.4836 -75.1006 125° Southeast 508 585 37,000  Level Miami Center
Sat 12:12:57 AM 24.4006 -74.9739 126° Southeast 508 585 37,000  Level Miami Center
Sat 12:13:58 AM 24.3194 -74.8497 126° Southeast 508 585 37,000  Level Miami Center
Sat 12:14:55 AM 24.2361 -74.7258 126° Southeast 508 585 37,000  Level Miami Center
Sat 12:15:55 AM 24.1483 -74.5883 125° Southeast 508 585 37,000  Level Miami Center
Sat 12:16:56 AM 24.0631 -74.4647 127° Southeast 508 585 37,000  Level Miami Center
Sat 12:17:55 AM 23.9836 -74.3389 125° Southeast 508 585 37,000  Level Miami Center
Sat 12:18:58 AM 23.9019 -74.2181 126° Southeast 502 578 37,000  Level Miami Center
Sat 12:19:58 AM 23.8203 -74.0947 126° Southeast 502 578 37,000  Level Miami Center
Sat 12:20:56 AM 23.7386 -73.9694 125° Southeast 497 572 37,000  Level Miami Center
Sat 12:21:57 AM 23.6525 -73.8467 127° Southeast 502 578 37,000  Level Miami Center
Sat 12:22:57 AM 23.5708 -73.7264 127° Southeast 502 578 37,000  Level Miami Center
Sat 12:23:58 AM 23.4867 -73.6014 126° Southeast 501 577 37,000  Level Miami Center
Sat 12:24:57 AM 23.4025 -73.4792 127° Southeast 501 577 37,000  Level Miami Center
Sat 12:25:56 AM 23.3222 -73.3525 125° Southeast 506 582 37,000  Level Miami Center
Sat 12:26:56 AM 23.2294 -73.2283 129° Southeast 511 588 37,000  Level Miami Center
Sat 12:27:57 AM 23.1492 -73.1042 125° Southeast 511 588 37,000  Level Miami Center
Sat 12:28:58 AM 23.0686 -72.9800 125° Southeast 511 588 37,000  Level Miami Center
Sat 12:29:56 AM 22.9883 -72.8564 125° Southeast 506 582 37,000  Level Miami Center
Sat 12:30:57 AM 22.9014 -72.7350 128° Southeast 506 582 37,000  Level Miami Center
Sat 12:31:55 AM 22.8167 -72.6117 127° Southeast 511 588 37,000  Level Miami Center
Sat 12:32:58 AM 22.7336 -72.4883 126° Southeast 516 594 37,000  Level Miami Center
Sat 12:33:55 AM 22.6464 -72.3631 127° Southeast 516 594 37,000  Level Miami Center
Sat 12:34:55 AM 22.5614 -72.2378 126° Southeast 516 594 37,000  Level Miami Center
Sat 12:35:55 AM 22.4761 -72.1128 126° Southeast 516 594 37,000  Level Miami Center
Sat 12:36:55 AM 22.3906 -71.9881 127° Southeast 516 594 37,000  Level Miami Center
Sat 12:37:58 AM 22.3075 -71.8656 126° Southeast 516 594 37,000  Level Miami Center
Sat 12:38:55 AM 22.2197 -71.7411 127° Southeast 516 594 37,000  Level Miami Center
Sat 12:39:56 AM 22.1319 -71.6167 127° Southeast 516 594 37,000  Level Miami Center
Sat 12:40:55 AM 22.0486 -71.4947 126° Southeast 516 594 37,000  Level Miami Center
Sat 12:41:57 AM 21.9628 -71.3731 127° Southeast 516 594 37,000  Level Miami Center
Sat 12:42:58 AM 21.8747 -71.2492 127° Southeast 516 594 37,000  Level Miami Center
Sat 12:43:57 AM 21.8086 -71.1492 125° Southeast 516 594 37,000  Level Miami Center
Sat 12:44:56 AM 21.7117 -71.0150 128° Southeast 516 594 37,000  Level Miami Center
Sat 12:45:55 AM 21.6256 -70.8894 126° Southeast 516 594 37,000  Level Miami Center
Sat 12:46:55 AM 21.5372 -70.7664 128° Southeast 516 594 37,000  Level Miami Center
Sat 12:47:57 AM 21.4489 -70.6456 128° Southeast 516 594 37,000  Level Miami Center
Sat 12:48:55 AM 21.3583 -70.5206 128° Southeast 521 600 37,000  Level Miami Center
Sat 12:49:56 AM 21.2678 -70.3981 128° Southeast 521 600 37,000  Level Miami Center
Sat 12:50:56 AM 21.1833 -70.2778 127° Southeast 521 600 37,000  Level Miami Center
Sat 12:51:57 AM 21.0947 -70.1556 128° Southeast 521 600 37,000  Level Miami Center
Sat 12:52:58 AM 21.0058 -70.0289 127° Southeast 527 606 37,000  Level Miami Center
Sat 12:53:55 AM 20.9150 -69.9072 129° Southeast 527 606 37,000  Level Miami Center
Sat 12:54:55 AM 20.8261 -69.7853 128° Southeast 527 606 37,000  Level Miami Center
Sat 12:55:55 AM 20.7392 -69.6614 127° Southeast 527 606 37,000  Level Miami Center
Sat 12:56:55 AM 20.6503 -69.5400 128° Southeast 527 606 37,000  Level Miami Center
Sat 12:57:57 AM 20.5589 -69.4164 128° Southeast 527 606 37,000  Level Miami Center
Sat 12:58:57 AM 20.4697 -69.2953 128° Southeast 527 606 37,000  Level Miami Center
Sat 12:59:57 AM 20.3825 -69.1722 127° Southeast 527 606 37,000  Level Miami Center
Sat 01:00:57 AM 20.2889 -69.0517 130° Southeast 527 606 37,000  Level Miami Center
Sat 01:01:55 AM 20.1817 -68.9453 137° Southeast 527 606 37,000  Level Miami Center
Sat 01:02:55 AM 20.0783 -68.8386 136° Southeast 527 606 37,000  Level Miami Center
Sat 01:03:58 AM 19.9750 -68.7303 135° Southeast 522 601 37,000  Level Miami Center
Sat 01:04:58 AM 19.8628 -68.6158 136° Southeast 517 595 37,000  Level Miami Center
Sat 01:05:55 AM 19.7556 -68.5122 138° Southeast 517 595 37,000  Level Miami Center
Sat 01:06:55 AM 19.6458 -68.4089 138° Southeast 522 601 37,000  Level Miami Center
Sat 01:07:57 AM 19.5383 -68.3036 137° Southeast 522 601 37,000  Level Miami Center
Sat 01:09:02 AM 19.4333 -68.1833 133° Southeast 510 587 37,000  Level San Juan Center
Sat 01:10:02 AM 19.3333 -68.0833 137° Southeast 520 598 37,000 -99 Level San Juan Center
Sat 01:11:03 AM 19.2333 -67.9667 132° Southeast 510 587 36,800 -1,190 Descending San Juan Center
Sat 01:12:03 AM 19.1167 -67.8667 141° Southeast 520 598 34,600 -2,100 Descending San Juan Center
Sat 01:13:03 AM 19.0167 -67.7667 137° Southeast 520 598 32,600 -2,231 Descending San Juan Center
Sat 01:14:04 AM 18.9167 -67.6500 132° Southeast 520 598 30,100 -2,281 Descending San Juan Center
Sat 01:15:04 AM 18.8000 -67.5500 141° Southeast 510 587 28,000 -2,000 Descending San Juan Center
Sat 01:16:04 AM 18.7167 -67.4500 131° Southeast 480 552 26,100 -1,884 Descending San Juan Center
Sat 01:17:05 AM 18.6167 -67.3667 142° Southeast 460 529 24,200 -1,934 Descending San Juan Center
Sat 01:18:05 AM 18.5333 -67.2667 131° Southeast 450 518 22,200 -1,900 Descending San Juan Center
Sat 01:19:05 AM 18.4333 -67.1833 142° Southeast 430 495 20,400 -1,785 Descending San Juan Center
Sat 01:20:06 AM 18.3500 -67.1000 136° Southeast 420 483 18,600 -1,686 Descending San Juan Center
Sat 01:21:06 AM 18.2667 -67.0167 136° Southeast 400 460 17,000 -1,550 Descending San Juan Center
Sat 01:22:06 AM 18.2000 -66.9500 136° Southeast 380 437 15,500 -1,537 Descending San Juan Center
Sat 01:23:07 AM 18.1167 -66.8667 136° Southeast 370 426 13,900 -1,587 Descending San Juan Center
Sat 01:24:07 AM 18.0500 -66.8000 136° Southeast 360 414 12,300 -1,450 Descending San Juan Center
Sat 01:25:07 AM 17.9833 -66.7333 136° Southeast 330 380 11,000 -1,289 Descending San Juan Center
Sat 01:26:08 AM 17.9167 -66.6667 136° Southeast 290 334 9,700 -1,339 Descending San Juan Center
Sat 01:27:08 AM 17.8667 -66.6000 128° Southeast 290 334 8,300 -1,450 Descending San Juan Center
Sat 01:28:08 AM 17.8500 -66.5167 102° East 270 311 6,800 -1,388 Descending San Juan Center
Sat 01:29:09 AM 17.8500 -66.4500 90° East 240 276 5,500 -1,190 Descending San Juan Center
Sat 01:30:09 AM 17.8667 -66.4000 71° East 190 219 4,400 -1,150 Descending San Juan Center
Sat 01:31:09 AM 17.9167 -66.4000 360° North 200 230 3,200 -1,200 Descending San Juan Center
Sat 01:32:09 AM 17.9667 -66.4500 316° Northwest 200 230 2,000 -1,200 Descending San Juan Center

Login

Don't have an account? Register now (free) for customized features, flight alerts, and more!